This is the latest recevied weather packets stored in our database for station/object EB3EHJ-7. If no packets are shown the sender has not sent any weather packets the latest 10 day(s).
| Time | Temp. | Humidity | Pressure | Rain* | Wind** | Luminosity | Snow |
|---|---|---|---|---|---|---|---|
| 1788162773 | 78° F | 38% | 765.3 mmHg | - | - | - | - |
| 1788160973 | 78° F | 37% | 765.1 mmHg | - | - | - | - |
| 1788159172 | 79° F | 35% | 765.1 mmHg | - | - | - | - |
| 1788157372 | 80° F | 35% | 764.9 mmHg | - | - | - | - |
| 1788155572 | 81° F | 40% | 764.6 mmHg | - | - | - | - |
| 1787917988 | 77° F | 35% | 763.8 mmHg | - | - | - | - |
| 1787816713 | 79° F | 50% | 759.4 mmHg | - | - | - | - |
| 1787814913 | 79° F | 44% | 759.2 mmHg | - | - | - | - |
| 1787813113 | 79° F | 41% | 759.4 mmHg | - | - | - | - |
| 1787811313 | 83° F | 48% | 759.2 mmHg | - | - | - | - |
| 1787744721 | 79° F | 47% | 760.9 mmHg | - | - | - | - |
| 1787742921 | 80° F | 51% | 761.4 mmHg | - | - | - | - |
| 1787741121 | 80° F | 49% | 760.9 mmHg | - | - | - | - |
| 1787739321 | 79° F | 48% | 761.5 mmHg | - | - | - | - |
| 1787737520 | 79° F | 47% | 761.6 mmHg | - | - | - | - |
| 1787735720 | 79° F | 45% | 759.5 mmHg | - | - | - | - |
| 1787733920 | 79° F | 47% | 760.9 mmHg | - | - | - | - |
| 1787732120 | 80° F | 49% | 761.5 mmHg | - | - | - | - |
| 1787730320 | 79° F | 45% | 761.5 mmHg | - | - | - | - |
| 1787728520 | 78° F | 42% | 760 mmHg | - | - | - | - |
| 1787726720 | 79° F | 39% | 761.2 mmHg | - | - | - | - |
| 1787724920 | 84° F | 47% | 762.2 mmHg | - | - | - | - |
| 1787557518 | 78° F | 41% | 761.8 mmHg | - | - | - | - |
| 1787555718 | 78° F | 40% | 761.9 mmHg | - | - | - | - |
| 1787553918 | 80° F | 40% | 762.3 mmHg | - | - | - | - |
* Rain since midnight (hover to see other rain measurements)
** Current wind speed in m/s (hover to see current wind gust speed)